Time;durP1;ratioP1;P1;durP2;ratioP2;P2;SDS_P1;SDS_P2;PMS_P1;PMS_P2;Temp;Humidity;BMP_temperature;BMP_pressure;BME280_temperature;BME280_humidity;BME280_pressure;Samples;Min_cycle;Max_cycle;Signal;HPM_P1;HPM_P2
2020/12/13 11:07:17;;;;;;;28.90;20.13;;;;;;;7.26;98.70;98487.09;5107623;27;20579;-81
2020/12/13 11:14:08;;;;;;;22.30;15.90;;;;;;;8.45;97.33;98481.13;5106983;28;42974;-82
2020/12/13 11:16:36;;;;;;;18.07;13.97;;;;;;;8.73;94.64;98482.94;5164347;22;42521;-82
2020/12/13 11:19:05;;;;;;;16.30;12.73;;;;;;;9.02;92.09;98496.16;5026734;28;42973;-82
2020/12/13 11:21:32;;;;;;;14.93;12.43;;;;;;;9.18;90.38;98487.16;5016683;28;41015;-82
2020/12/13 11:24:01;;;;;;;15.83;12.73;;;;;;;9.33;89.10;98490.63;5023763;28;42861;-83
2020/12/13 11:26:28;;;;;;;12.73;11.40;;;;;;;9.40;88.11;98478.72;5041010;28;44626;-83
2020/12/13 11:28:55;;;;;;;13.73;11.30;;;;;;;9.57;86.55;98497.00;5096409;22;44344;-83
2020/12/13 11:31:22;;;;;;;13.43;11.27;;;;;;;9.63;85.82;98493.97;5001754;28;41424;-82
2020/12/13 11:33:50;;;;;;;12.50;10.53;;;;;;;9.68;85.10;98501.59;4979260;28;42187;-83
2020/12/13 11:36:17;;;;;;;12.63;11.13;;;;;;;9.68;84.83;98480.44;4982504;28;43654;-84
2020/12/13 11:38:44;;;;;;;11.20;10.00;;;;;;;9.67;84.14;98484.88;4996401;28;42254;-83
2020/12/13 11:41:12;;;;;;;11.93;10.60;;;;;;;9.84;83.84;98504.09;5219240;22;39838;-80
2020/12/13 11:43:40;;;;;;;11.13;10.00;;;;;;;9.82;83.58;98503.34;5021455;28;43057;-80
2020/12/13 11:46:08;;;;;;;10.77;9.10;;;;;;;9.72;83.17;98493.38;5023130;28;43092;-83
2020/12/13 11:48:35;;;;;;;11.67;10.20;;;;;;;9.86;83.04;98515.44;5024239;28;42539;-84
2020/12/13 11:53:43;;;;;;;12.00;9.20;;;;;;;9.83;82.65;98512.97;4985146;28;42164;-79
2020/12/13 11:56:10;;;;;;;11.13;9.97;;;;;;;9.86;82.03;98510.16;4977725;28;44357;-82
2020/12/13 11:58:40;;;;;;;11.17;8.90;;;;;;;9.77;82.05;98502.81;4987772;28;43991;-80
2020/12/13 12:01:08;;;;;;;10.97;9.87;;;;;;;9.73;81.85;98489.78;4987835;28;40449;-82
2020/12/13 12:03:35;;;;;;;11.17;9.53;;;;;;;9.85;81.66;98508.44;5081136;22;42361;-80
2020/12/13 12:06:03;;;;;;;10.87;9.77;;;;;;;9.92;81.60;98520.31;5006374;28;43315;-81
2020/12/13 12:08:30;;;;;;;10.47;9.43;;;;;;;9.93;81.36;98520.22;4991036;28;42001;-81
2020/12/13 12:10:58;;;;;;;11.17;9.63;;;;;;;9.92;81.22;98521.16;4989357;28;41599;-81
2020/12/13 12:13:25;;;;;;;10.73;9.30;;;;;;;9.88;81.15;98524.13;5006793;28;42845;-81
2020/12/13 12:15:53;;;;;;;9.03;8.07;;;;;;;9.84;80.75;98527.91;5083778;23;43686;-80
2020/12/13 12:18:20;;;;;;;10.07;8.80;;;;;;;9.73;81.07;98510.94;5007211;28;42019;-82
2020/12/13 12:20:47;;;;;;;11.13;9.77;;;;;;;9.79;80.69;98530.00;4997299;28;41375;-80
2020/12/13 12:23:14;;;;;;;9.70;8.70;;;;;;;9.77;81.36;98529.25;4999736;28;42076;-80
2020/12/13 12:25:48;;;;;;;10.83;9.13;;;;;;;9.71;81.28;98514.63;4985592;28;43404;-81
2020/12/13 12:28:16;;;;;;;10.83;9.63;;;;;;;9.80;80.92;98521.97;5076199;23;43178;-82
2020/12/13 12:30:43;;;;;;;10.43;9.33;;;;;;;9.83;81.07;98520.91;4957947;28;40690;-81
2020/12/13 12:33:11;;;;;;;9.87;8.87;;;;;;;9.88;80.82;98524.97;4989699;28;42262;-82
2020/12/13 12:35:39;;;;;;;9.63;8.73;;;;;;;9.90;81.33;98530.13;4988934;28;42811;-81
2020/12/13 12:38:06;;;;;;;10.00;9.00;;;;;;;9.86;81.15;98504.84;5060535;23;42817;-81
2020/12/13 12:40:33;;;;;;;9.17;8.27;;;;;;;9.97;80.93;98518.22;5009571;28;40637;-80
2020/12/13 12:43:00;;;;;;;9.70;8.80;;;;;;;10.01;80.25;98530.31;4989803;28;42099;-81
2020/12/13 12:45:27;;;;;;;9.00;8.10;;;;;;;10.09;80.53;98528.00;4972954;28;42482;-81
2020/12/13 12:47:55;;;;;;;9.93;8.93;;;;;;;9.87;80.37;98475.66;5019693;28;42306;-81
2020/12/13 12:50:23;;;;;;;10.00;9.00;;;;;;;10.21;80.05;98524.59;5101410;22;40395;-80
2020/12/13 12:52:50;;;;;;;8.40;7.60;;;;;;;10.16;79.68;98515.22;4996366;28;42384;-82
2020/12/13 12:55:17;;;;;;;9.17;8.23;;;;;;;10.26;79.88;98516.34;4996795;28;44247;-81
2020/12/13 12:57:45;;;;;;;8.60;7.70;;;;;;;10.38;79.37;98524.31;5020698;28;42087;-80
2020/12/13 13:02:58;;;;;;;11.80;7.57;;;;;;;10.43;78.84;98510.75;5116041;22;41746;-80
2020/12/13 13:05:31;;;;;;;8.57;7.67;;;;;;;10.53;78.33;98533.00;4977306;28;43466;-81
2020/12/13 13:08:01;;;;;;;8.97;7.63;;;;;;;10.53;78.61;98521.56;4976970;28;42553;-82
2020/12/13 13:10:32;;;;;;;8.60;7.70;;;;;;;10.55;77.85;98522.31;4993443;28;41573;-83
2020/12/13 13:12:59;;;;;;;8.87;7.90;;;;;;;10.57;77.62;98525.72;5097278;22;41441;-81
2020/12/13 13:15:33;;;;;;;8.30;7.50;;;;;;;10.58;77.82;98530.06;4977086;28;42142;-81
2020/12/13 13:18:03;;;;;;;8.90;8.00;;;;;;;10.69;77.62;98527.53;5003164;28;41929;-80
2020/12/13 13:20:31;;;;;;;8.17;7.17;;;;;;;10.69;77.00;98532.81;5008664;28;40394;-80
2020/12/13 13:22:59;;;;;;;8.47;7.67;;;;;;;10.68;77.03;98534.63;4976790;28;42627;-80
2020/12/13 13:25:26;;;;;;;8.03;7.30;;;;;;;10.63;77.14;98528.78;5106090;22;43665;-81
2020/12/13 13:27:53;;;;;;;7.90;7.00;;;;;;;10.63;77.17;98528.78;4987656;28;43487;-80
2020/12/13 13:30:20;;;;;;;8.40;7.57;;;;;;;10.72;76.79;98546.72;5009216;28;42535;-81
2020/12/13 13:32:48;;;;;;;8.07;7.27;;;;;;;10.70;76.77;98550.41;5000186;28;43082;-80
2020/12/13 13:35:16;;;;;;;7.07;6.43;;;;;;;10.62;76.42;98532.41;4993112;28;43434;-80
2020/12/13 13:37:43;;;;;;;6.90;6.27;;;;;;;10.69;76.61;98538.13;5072928;23;42545;-79
2020/12/13 13:40:11;;;;;;;7.53;6.73;;;;;;;10.80;76.55;98535.59;4993371;28;41075;-82
2020/12/13 13:42:38;;;;;;;8.37;7.57;;;;;;;10.82;76.04;98549.59;4976894;28;43265;-82
2020/12/13 13:45:13;;;;;;;8.20;7.40;;;;;;;10.81;76.06;98553.19;4993515;28;43684;-80
2020/12/13 13:50:53;;;;;;;7.13;6.43;;;;;;;10.86;76.55;98564.31;4959853;28;40782;-83
2020/12/13 13:53:21;;;;;;;8.27;7.47;;;;;;;10.86;76.08;98569.63;4978372;28;41127;-80
2020/12/13 13:55:55;;;;;;;8.80;8.00;;;;;;;10.77;75.98;98551.69;4966977;28;42755;-83
2020/12/13 13:58:24;;;;;;;8.13;7.43;;;;;;;10.79;76.00;98557.72;4954018;28;43489;-83
2020/12/13 14:00:52;;;;;;;8.20;7.40;;;;;;;10.81;76.21;98563.78;5070800;23;39974;-83
2020/12/13 14:03:19;;;;;;;8.67;7.77;;;;;;;10.79;76.05;98570.97;4958107;28;42997;-81
2020/12/13 14:05:49;;;;;;;9.10;8.03;;;;;;;10.67;75.87;98567.34;4956864;28;43204;-81
2020/12/13 14:11:24;;;;;;;8.00;7.20;;;;;;;10.60;76.22;98583.75;5039405;22;40390;31
2020/12/13 14:13:52;;;;;;;7.07;6.37;;;;;;;10.53;76.36;98591.25;4951399;28;42749;-82
2020/12/13 14:16:19;;;;;;;8.30;7.53;;;;;;;10.48;76.38;98603.13;4937384;28;43347;-82
2020/12/13 14:18:46;;;;;;;6.97;6.37;;;;;;;10.46;76.02;98605.88;4973232;28;42150;-82
2020/12/13 14:21:16;;;;;;;8.50;6.97;;;;;;;10.27;76.06;98600.06;4953503;28;41318;-82
2020/12/13 14:23:43;;;;;;;8.37;7.30;;;;;;;10.27;76.27;98619.44;5078033;22;42145;-81
2020/12/13 14:26:11;;;;;;;7.60;6.90;;;;;;;10.23;76.19;98614.47;5008674;28;42905;-82
2020/12/13 14:28:39;;;;;;;7.90;7.10;;;;;;;10.22;75.94;98620.69;4976391;28;43947;-83
2020/12/13 14:31:07;;;;;;;7.93;7.13;;;;;;;10.05;76.45;98590.00;4991457;28;40989;-82
2020/12/13 14:33:34;;;;;;;6.13;5.57;;;;;;;10.20;76.67;98620.78;4991611;28;43438;-83
2020/12/13 14:36:01;;;;;;;7.23;6.53;;;;;;;10.19;76.80;98618.25;5075521;23;43428;-82
2020/12/13 14:38:28;;;;;;;8.07;7.07;;;;;;;10.13;76.70;98619.47;5028546;28;43456;-80
2020/12/13 14:40:55;;;;;;;7.57;6.70;;;;;;;10.00;76.07;98597.41;4987164;28;41535;-80
2020/12/13 14:43:22;;;;;;;7.47;6.77;;;;;;;10.06;76.55;98620.81;4991439;28;41789;-80
2020/12/13 14:48:31;;;;;;;7.10;6.40;;;;;;;9.99;76.69;98624.78;4989685;28;42876;-80
2020/12/13 14:50:59;;;;;;;8.00;7.20;;;;;;;9.97;76.92;98629.34;4995239;28;41434;-81
2020/12/13 14:53:26;;;;;;;8.10;6.57;;;;;;;9.94;76.92;98624.22;4995857;28;43244;-80
2020/12/13 14:55:53;;;;;;;7.43;6.50;;;;;;;9.90;76.97;98628.00;4977857;28;44394;-80
2020/12/13 14:58:21;;;;;;;6.83;6.23;;;;;;;9.76;76.93;98615.69;5052975;23;42309;-80
2020/12/13 15:00:48;;;;;;;7.70;6.90;;;;;;;9.75;77.05;98629.84;4988474;28;40563;-81
2020/12/13 15:03:15;;;;;;;7.57;6.87;;;;;;;9.71;77.02;98623.03;4972012;28;42195;-81
2020/12/13 15:05:44;;;;;;;7.37;6.23;;;;;;;9.65;76.67;98631.34;4971730;28;43411;-80
2020/12/13 15:08:11;;;;;;;7.20;6.50;;;;;;;9.60;77.05;98629.00;4972497;28;44097;-81
2020/12/13 15:10:39;;;;;;;6.90;6.20;;;;;;;9.55;77.09;98628.44;5076636;23;41008;-80
2020/12/13 15:13:09;;;;;;;6.67;5.97;;;;;;;9.56;77.47;98634.56;4975504;28;42908;-81
2020/12/13 15:15:45;;;;;;;6.37;5.73;;;;;;;9.53;77.30;98635.59;4990994;28;42584;-80
2020/12/13 15:18:12;;;;;;;6.33;5.73;;;;;;;9.44;77.04;98628.25;4974488;28;42836;-81
2020/12/13 15:20:39;;;;;;;6.27;5.67;;;;;;;9.48;76.97;98642.13;4990427;28;39825;-82
2020/12/13 15:23:07;;;;;;;6.47;5.83;;;;;;;9.43;77.03;98636.25;5073209;23;41865;-80
2020/12/13 15:25:35;;;;;;;6.40;5.80;;;;;;;9.43;77.34;98639.75;4984301;28;43542;-80
2020/12/13 15:28:05;;;;;;;6.60;5.90;;;;;;;9.40;77.34;98639.94;4947173;28;42392;-80
2020/12/13 15:30:33;;;;;;;6.00;5.37;;;;;;;9.24;76.87;98623.34;4966462;28;40203;-80
2020/12/13 15:33:00;;;;;;;5.80;5.30;;;;;;;9.32;77.03;98647.50;5060279;23;41544;-79
